• Join FlightAware (Why Join?)
  • Login
  • US Flag 
Trick or treat! (Boo!!) 
06:42AM EDT


 

Airport Tracker/Info


-or-


 

Live Flight TrackerFlight Track Log ✈ N441S ✈ 29-Aug-2013 ✈ KBZN - KRPX

Flight Track Log - Related Links

Times and Time Zones

All times are in EDT time to prevent confusion due to time zone crossing. See the N441S flight status page for this flight to view local times or setup timezone preferences in your user account.

Time Position Orientation Groundspeed Altitude Reporting Facility
EDT Latitude Longitude Course Direction KTS MPH feet Rate Location/Type
11:13AM 45.8987 -110.7002 72° East  Level FlightAware Approximate
11:13AM 45.8178 -110.9389 70° East 165 190 12,400  Level Salt Lake Center
11:14AM 45.9166 -110.6228 72° East  Level FlightAware Approximate
11:14AM 45.8344 -110.8864 65° Northeast 170 196 14,100  Level Salt Lake Center
11:15AM 45.9346 -110.5454 69° East  Level FlightAware Approximate
11:15AM 45.8597 -110.7908 69° East 206 237 15,000  Level Salt Lake Center
11:16AM 45.9554 -110.4694 69° East  Level FlightAware Approximate
11:16AM 45.8889 -110.6936 67° East 253 291 15,000  Level Salt Lake Center
11:17AM 45.9761 -110.3934 69° East  Level FlightAware Approximate
11:17AM 45.9181 -110.5928 67° East 270 311 15,000  Level Salt Lake Center
11:18AM 45.9958 -110.3168 70° East  Level FlightAware Approximate
11:18AM 45.9472 -110.4886 68° East 279 321 15,000  Level Salt Lake Center
11:19AM 45.9764 -110.3844 68° East 281 323 15,000  Level Salt Lake Center
11:20AM 46.0064 -110.2789 68° East 283 326 15,000  Level Salt Lake Center
11:21AM 46.0428 -110.1511 68° East 287 330 15,000  Level Salt Lake Center
11:22AM 46.0719 -110.0433 69° East 289 333 15,000  Level Salt Lake Center
11:23AM 46.1008 -109.9378 68° East 286 329 15,000  Level Salt Lake Center
11:24AM 46.1314 -109.8325 67° East 286 329 15,000  Level Salt Lake Center
11:25AM 46.1633 -109.7125 69° East 286 329 15,000  Level Salt Lake Center
11:26AM 46.1906 -109.6117 69° East 274 315 15,000  Level Salt Lake Center
11:27AM 46.2206 -109.5039 68° East 271 312 15,000  Level Salt Lake Center
11:28AM 46.2469 -109.4036 69° East 272 313 15,000 -300 Level Salt Lake Center
11:29AM 46.2764 -109.2956 68° East 270 311 14,500 -1,020 Descending Salt Lake Center
11:30AM 46.3044 -109.1906 69° East 281 323 13,000 -1,680 Descending Salt Lake Center
11:31AM 46.3358 -109.0742 69° East 286 329 11,100 -1,740 Descending Salt Lake Center
11:32AM 46.3631 -108.9717 69° East 277 319 9,500 -1,680 Descending Salt Lake Center
11:33AM 46.3911 -108.8636 69° East 272 313 7,700 -1,080 Descending Salt Lake Center
11:34AM 46.4144 -108.7781 68° East 255 293 7,300 -420 Descending Salt Lake Center
11:36AM 46.4270 -108.6822 79° East  Level FlightAware Approximate
11:43AM 46.4667 -108.5333 64° Northeast  Level FlightAware Approximate
11:44AM 46.4750 -108.5434 64° Northeast  Level Estimated
11:45AM 46.4750 -108.5434 64° Northeast  Level Estimated
11:46AM 46.4750 -108.5434 64° Northeast  Level Estimated